Time;durP1;ratioP1;P1;durP2;ratioP2;P2;SDS_P1;SDS_P2;PMS_P1;PMS_P2;Temp;Humidity;BMP_temperature;BMP_pressure;BME280_temperature;BME280_humidity;BME280_pressure;Samples;Min_cycle;Max_cycle;Signal;HPM_P1;HPM_P2
2020/12/06 00:01:22;;;;;;;0.50;0.50;;;2.00;99.90;;;;;;5070087;28;20192;-84
2020/12/06 00:03:48;;;;;;;0.55;0.55;;;2.00;99.90;;;;;;5070264;28;20556;-84
2020/12/06 00:06:18;;;;;;;0.50;0.50;;;2.00;99.90;;;;;;5068874;28;20250;-84
2020/12/06 00:08:44;;;;;;;0.50;0.50;;;2.00;99.90;;;;;;5069351;28;20242;-84
2020/12/06 00:11:10;;;;;;;0.52;0.52;;;2.00;99.90;;;;;;5068401;28;20332;-83
2020/12/06 00:13:37;;;;;;;0.50;0.50;;;2.00;99.90;;;;;;5066605;28;20200;-84
2020/12/06 00:16:03;;;;;;;0.60;0.60;;;1.90;99.90;;;;;;5069521;28;20196;-84
2020/12/06 00:18:29;;;;;;;0.50;0.50;;;1.90;99.90;;;;;;5068760;28;20199;-84
2020/12/06 00:20:55;;;;;;;0.50;0.50;;;1.90;99.90;;;;;;5066601;28;20241;-84
2020/12/06 00:23:21;;;;;;;0.60;0.60;;;1.90;99.90;;;;;;5068890;28;20249;-83
2020/12/06 00:25:49;;;;;;;0.60;0.60;;;1.80;99.90;;;;;;5068848;28;20192;-84
2020/12/06 00:28:15;;;;;;;0.50;0.50;;;1.80;99.90;;;;;;5066468;28;20498;-84
2020/12/06 00:30:42;;;;;;;0.50;0.50;;;1.90;99.90;;;;;;5068948;28;20718;-83
2020/12/06 00:33:09;;;;;;;0.50;0.50;;;1.80;99.90;;;;;;5068982;28;20743;-84
2020/12/06 00:35:35;;;;;;;0.50;0.50;;;1.80;99.90;;;;;;5068735;28;20249;-84
2020/12/06 00:38:01;;;;;;;0.60;0.60;;;1.90;99.90;;;;;;5069454;28;20249;-84
2020/12/06 00:40:27;;;;;;;0.50;0.50;;;2.00;99.90;;;;;;5068750;28;20191;-84
2020/12/06 00:42:53;;;;;;;0.50;0.50;;;2.10;99.90;;;;;;5069058;28;20187;-84
2020/12/06 00:45:19;;;;;;;0.50;0.50;;;2.10;99.90;;;;;;5069836;28;20435;-84
2020/12/06 00:47:48;;;;;;;0.60;0.60;;;2.10;99.90;;;;;;5069937;28;20246;-85
2020/12/06 00:50:15;;;;;;;0.50;0.50;;;2.10;99.90;;;;;;5069446;28;20199;-84
2020/12/06 00:52:41;;;;;;;0.50;0.50;;;2.10;99.90;;;;;;5069919;28;20253;-83
2020/12/06 00:55:07;;;;;;;0.60;0.60;;;2.00;99.90;;;;;;5069460;28;20203;-84
2020/12/06 00:57:33;;;;;;;0.50;0.50;;;2.10;99.90;;;;;;5069574;28;20260;-83
2020/12/06 00:59:59;;;;;;;0.60;0.60;;;2.10;99.90;;;;;;5069566;28;20196;-84
2020/12/06 01:02:25;;;;;;;0.50;0.50;;;2.10;99.90;;;;;;5069285;28;20620;-84
2020/12/06 01:04:52;;;;;;;0.50;0.50;;;2.20;99.90;;;;;;5069934;28;20233;-84
2020/12/06 01:07:18;;;;;;;0.50;0.50;;;2.10;99.90;;;;;;5069282;28;20221;-83
2020/12/06 01:09:44;;;;;;;0.50;0.50;;;2.10;99.90;;;;;;5069329;28;20235;-84
2020/12/06 01:12:10;;;;;;;0.60;0.60;;;2.10;99.90;;;;;;5069159;28;20231;-84
2020/12/06 01:14:36;;;;;;;0.57;0.57;;;2.10;99.90;;;;;;5069633;28;20200;-84
2020/12/06 01:17:03;;;;;;;0.50;0.50;;;2.10;99.90;;;;;;5069292;28;20191;-83
2020/12/06 01:19:29;;;;;;;0.50;0.50;;;2.10;99.90;;;;;;5069185;28;20196;-85
2020/12/06 01:21:56;;;;;;;0.50;0.50;;;2.10;99.90;;;;;;5069575;28;20204;-84
2020/12/06 01:24:22;;;;;;;0.50;0.50;;;2.10;99.90;;;;;;5069449;28;20192;-84
2020/12/06 01:26:48;;;;;;;0.50;0.50;;;2.20;99.90;;;;;;5069273;28;20199;-84
2020/12/06 01:29:15;;;;;;;0.50;0.50;;;2.20;99.90;;;;;;5069365;28;20235;-84
2020/12/06 01:31:48;;;;;;;0.50;0.50;;;2.20;99.90;;;;;;5069763;28;20203;-84
2020/12/06 01:34:14;;;;;;;0.50;0.50;;;2.20;99.90;;;;;;5069155;28;20206;-84
2020/12/06 01:36:40;;;;;;;0.50;0.50;;;2.20;99.90;;;;;;5069254;28;20207;-84
2020/12/06 01:39:08;;;;;;;0.50;0.50;;;2.10;99.90;;;;;;5068889;28;20567;-84
2020/12/06 01:41:34;;;;;;;0.50;0.50;;;2.10;99.90;;;;;;5069178;28;20221;-85
2020/12/06 01:44:02;;;;;;;0.50;0.50;;;2.10;99.90;;;;;;5069228;28;20199;-85
2020/12/06 01:46:28;;;;;;;0.50;0.50;;;2.10;99.90;;;;;;5069069;28;20204;-84
2020/12/06 01:48:54;;;;;;;0.50;0.50;;;2.10;99.90;;;;;;5071126;28;20243;-85
2020/12/06 01:51:22;;;;;;;0.50;0.50;;;2.10;99.90;;;;;;5072975;28;20203;-85
2020/12/06 01:53:49;;;;;;;0.50;0.50;;;2.10;99.90;;;;;;5072971;28;20252;-84
2020/12/06 01:56:16;;;;;;;0.50;0.50;;;2.10;99.90;;;;;;5072741;28;20214;-84
2020/12/06 01:58:42;;;;;;;0.50;0.50;;;2.00;99.90;;;;;;5073228;28;20253;-85
2020/12/06 02:01:09;;;;;;;0.60;0.60;;;2.00;99.90;;;;;;5072903;28;20200;-85
2020/12/06 02:03:35;;;;;;;0.50;0.50;;;2.10;99.90;;;;;;5072597;28;20302;-85
2020/12/06 02:06:01;;;;;;;0.50;0.50;;;2.10;99.90;;;;;;5073189;28;20278;-85
2020/12/06 02:08:28;;;;;;;0.50;0.50;;;2.00;99.90;;;;;;5071020;28;20281;-84
2020/12/06 02:10:54;;;;;;;0.50;0.50;;;2.00;99.90;;;;;;5073191;28;20195;-84
2020/12/06 02:13:21;;;;;;;0.50;0.50;;;2.00;99.90;;;;;;5074076;28;20207;-84
2020/12/06 02:15:47;;;;;;;0.55;0.55;;;2.10;99.90;;;;;;5074261;28;20203;-84
2020/12/06 02:18:13;;;;;;;0.50;0.50;;;2.20;99.90;;;;;;5074086;28;20203;-84
2020/12/06 02:20:41;;;;;;;0.50;0.50;;;2.20;99.90;;;;;;5074231;28;20229;-85
2020/12/06 02:23:07;;;;;;;0.60;0.60;;;2.20;99.90;;;;;;5074337;28;20200;-84
2020/12/06 02:25:35;;;;;;;0.52;0.52;;;2.30;99.90;;;;;;5074070;28;20214;-85
2020/12/06 02:28:01;;;;;;;0.50;0.50;;;2.30;99.90;;;;;;5073647;28;20686;-84
2020/12/06 02:30:27;;;;;;;0.50;0.50;;;2.40;99.90;;;;;;5073643;28;20208;-84
2020/12/06 02:32:54;;;;;;;0.50;0.50;;;2.40;99.90;;;;;;5073717;28;20216;-83
2020/12/06 02:35:20;;;;;;;0.50;0.50;;;2.50;99.90;;;;;;5073591;28;20207;-84
2020/12/06 02:37:47;;;;;;;0.50;0.50;;;2.50;99.90;;;;;;5073754;28;20253;-84
2020/12/06 02:40:13;;;;;;;0.50;0.50;;;2.50;99.90;;;;;;5073934;28;20199;-84
2020/12/06 02:42:39;;;;;;;0.50;0.50;;;2.60;99.90;;;;;;5074135;28;20208;-83
2020/12/06 02:45:05;;;;;;;0.55;0.55;;;2.50;99.90;;;;;;5073881;28;20203;-84
2020/12/06 02:47:32;;;;;;;0.50;0.50;;;2.60;99.90;;;;;;5073670;28;20265;-83
2020/12/06 02:49:58;;;;;;;0.50;0.50;;;2.70;99.90;;;;;;5073770;28;20299;-84
2020/12/06 02:52:24;;;;;;;0.50;0.50;;;2.70;99.90;;;;;;5073557;28;20196;-85
2020/12/06 02:54:51;;;;;;;0.50;0.50;;;2.70;99.90;;;;;;5073804;28;20199;-84
2020/12/06 02:57:17;;;;;;;0.50;0.50;;;2.60;99.90;;;;;;5073316;28;20675;-84
2020/12/06 02:59:43;;;;;;;0.50;0.50;;;2.50;99.90;;;;;;5073207;28;20208;-84
2020/12/06 03:02:10;;;;;;;0.50;0.50;;;2.50;99.90;;;;;;5073454;28;20214;-84
2020/12/06 03:04:36;;;;;;;0.50;0.50;;;2.40;99.90;;;;;;5073497;28;20261;-85
2020/12/06 03:07:02;;;;;;;0.50;0.50;;;2.40;99.90;;;;;;5073353;28;20797;-85
2020/12/06 03:09:28;;;;;;;0.50;0.50;;;2.40;99.90;;;;;;5072966;28;20235;-85
2020/12/06 03:11:55;;;;;;;0.50;0.50;;;2.30;99.90;;;;;;5072844;28;20312;-85
2020/12/06 03:14:21;;;;;;;0.57;0.57;;;2.30;99.90;;;;;;5072536;28;20650;-84
2020/12/06 03:16:47;;;;;;;0.60;0.60;;;2.30;99.90;;;;;;5072626;28;20735;-84
2020/12/06 03:19:13;;;;;;;0.50;0.50;;;2.20;99.90;;;;;;5072308;28;20203;-84
2020/12/06 03:21:40;;;;;;;0.50;0.50;;;2.20;99.90;;;;;;5072355;28;20540;-84
2020/12/06 03:24:06;;;;;;;0.50;0.50;;;2.20;99.90;;;;;;5072276;28;20204;-84
2020/12/06 03:26:32;;;;;;;0.50;0.50;;;2.20;99.90;;;;;;5072065;28;20243;-84
2020/12/06 03:29:01;;;;;;;0.50;0.50;;;2.20;99.90;;;;;;5072248;28;20223;-84
2020/12/06 03:31:27;;;;;;;0.50;0.50;;;2.20;99.90;;;;;;5072136;28;20253;-84
2020/12/06 03:33:53;;;;;;;0.50;0.50;;;2.20;99.90;;;;;;5072170;28;20199;-84
2020/12/06 03:36:19;;;;;;;0.50;0.50;;;2.20;99.90;;;;;;5072108;28;20729;-84
2020/12/06 03:38:45;;;;;;;0.50;0.50;;;2.20;99.90;;;;;;5072275;28;20226;-85
2020/12/06 03:41:12;;;;;;;0.50;0.50;;;2.20;99.90;;;;;;5071942;28;20203;-85
2020/12/06 03:43:41;;;;;;;0.50;0.50;;;2.20;99.90;;;;;;5072049;28;20195;-85
2020/12/06 03:46:08;;;;;;;0.50;0.50;;;2.20;99.90;;;;;;5071901;28;20204;-84
2020/12/06 03:48:34;;;;;;;0.50;0.50;;;2.20;99.90;;;;;;5071887;28;20231;-85
2020/12/06 03:51:00;;;;;;;0.50;0.50;;;2.10;99.90;;;;;;5071928;28;20204;-85
2020/12/06 03:53:26;;;;;;;0.47;0.47;;;2.10;99.90;;;;;;5071817;28;20203;-84
2020/12/06 03:55:52;;;;;;;0.50;0.50;;;2.10;99.90;;;;;;5071746;28;20257;-85
2020/12/06 03:58:18;;;;;;;0.50;0.50;;;2.20;99.90;;;;;;5071803;28;20215;-85
2020/12/06 04:00:44;;;;;;;0.50;0.50;;;2.10;99.90;;;;;;5071678;28;20716;-84
2020/12/06 04:03:11;;;;;;;0.50;0.50;;;2.10;99.90;;;;;;5071808;28;20257;-84
2020/12/06 04:05:37;;;;;;;0.50;0.50;;;2.20;99.90;;;;;;5071475;28;20200;-84
2020/12/06 04:08:03;;;;;;;0.50;0.50;;;2.10;99.90;;;;;;5071451;28;20257;-84
2020/12/06 04:10:30;;;;;;;0.50;0.50;;;2.20;99.90;;;;;;5070761;28;20207;-85
2020/12/06 04:12:57;;;;;;;0.50;0.50;;;2.10;99.90;;;;;;5071293;28;20231;-84
2020/12/06 04:15:23;;;;;;;0.50;0.50;;;2.10;99.90;;;;;;5071449;28;20199;-84
2020/12/06 04:17:49;;;;;;;0.50;0.50;;;2.10;99.90;;;;;;5071615;28;20336;-84
2020/12/06 04:20:16;;;;;;;0.50;0.50;;;2.10;99.90;;;;;;5071724;28;20212;-84
2020/12/06 04:22:42;;;;;;;0.50;0.50;;;2.10;99.90;;;;;;5071422;28;20269;-84
2020/12/06 04:25:10;;;;;;;0.50;0.50;;;2.10;99.90;;;;;;5071195;28;20196;-85
2020/12/06 04:27:36;;;;;;;0.50;0.50;;;2.10;99.90;;;;;;5071602;28;20272;-84
2020/12/06 04:30:02;;;;;;;0.50;0.50;;;2.10;99.90;;;;;;5071324;28;20224;-84
2020/12/06 04:32:29;;;;;;;0.50;0.50;;;2.10;99.90;;;;;;5070950;28;20423;-84
2020/12/06 04:34:55;;;;;;;0.50;0.50;;;2.10;99.90;;;;;;5071341;28;20200;-84
2020/12/06 04:37:22;;;;;;;0.50;0.50;;;2.10;99.90;;;;;;5071188;28;20739;-85
2020/12/06 04:39:48;;;;;;;0.50;0.50;;;2.10;99.90;;;;;;5071495;28;20658;-84
2020/12/06 04:42:15;;;;;;;0.50;0.50;;;2.10;99.90;;;;;;5071297;28;20484;-85
2020/12/06 04:44:41;;;;;;;0.50;0.50;;;2.20;99.90;;;;;;5070925;28;20207;-85
2020/12/06 04:47:16;;;;;;;0.50;0.50;;;2.20;99.90;;;;;;5071109;28;20196;-85
2020/12/06 04:49:46;;;;;;;0.50;0.50;;;2.20;99.90;;;;;;5070863;28;20231;-84
2020/12/06 04:52:19;;;;;;;0.50;0.50;;;2.20;99.90;;;;;;5070813;28;20734;-85
2020/12/06 04:54:57;;;;;;;0.50;0.50;;;2.20;99.90;;;;;;5070891;28;20238;-85
2020/12/06 04:57:23;;;;;;;0.50;0.50;;;2.20;99.90;;;;;;5070844;28;20195;-84
2020/12/06 05:00:00;;;;;;;0.50;0.50;;;2.20;99.90;;;;;;5071033;28;20203;-85
2020/12/06 05:02:28;;;;;;;0.50;0.50;;;2.20;99.90;;;;;;5070833;28;20248;-85
2020/12/06 05:04:59;;;;;;;0.50;0.50;;;2.20;99.90;;;;;;5070694;28;20207;-85
2020/12/06 05:07:27;;;;;;;0.50;0.50;;;2.20;99.90;;;;;;5070792;28;20249;-85
2020/12/06 05:09:55;;;;;;;0.50;0.50;;;2.20;99.90;;;;;;5070850;28;20231;-84
2020/12/06 05:12:21;;;;;;;0.50;0.50;;;2.20;99.90;;;;;;5070577;28;20249;-84
2020/12/06 05:14:47;;;;;;;0.50;0.50;;;2.20;99.90;;;;;;5071082;28;20203;-84
2020/12/06 05:17:15;;;;;;;0.50;0.50;;;2.20;99.90;;;;;;5070874;28;20204;-84
2020/12/06 05:19:41;;;;;;;0.50;0.50;;;2.20;99.90;;;;;;5070822;28;20648;-84
2020/12/06 05:22:10;;;;;;;0.50;0.50;;;2.20;99.90;;;;;;5071453;28;20257;-84
2020/12/06 05:24:36;;;;;;;0.50;0.50;;;2.30;99.90;;;;;;5074827;28;20195;-85
2020/12/06 05:27:03;;;;;;;0.50;0.50;;;2.30;99.90;;;;;;5074753;28;20200;-84
2020/12/06 05:29:30;;;;;;;0.50;0.50;;;2.40;99.90;;;;;;5074518;28;20227;-85
2020/12/06 05:31:56;;;;;;;0.50;0.50;;;2.40;99.90;;;;;;5074660;28;20245;-85
2020/12/06 05:34:23;;;;;;;0.50;0.50;;;2.40;99.90;;;;;;5074543;28;20196;-85
2020/12/06 05:36:49;;;;;;;0.50;0.50;;;2.40;99.90;;;;;;5074903;28;20207;-86
2020/12/06 05:39:15;;;;;;;0.50;0.50;;;2.40;99.90;;;;;;5074580;28;20666;-85
2020/12/06 05:41:43;;;;;;;0.50;0.50;;;2.40;99.90;;;;;;5074526;28;20199;-85
2020/12/06 05:44:10;;;;;;;0.50;0.50;;;2.40;99.90;;;;;;5074781;28;20256;-86
2020/12/06 05:46:39;;;;;;;0.50;0.50;;;2.40;99.90;;;;;;5074435;28;20556;-85
2020/12/06 05:49:07;;;;;;;0.50;0.50;;;2.50;99.90;;;;;;5074373;28;20231;-85
2020/12/06 05:51:33;;;;;;;0.50;0.50;;;2.40;99.90;;;;;;5074558;28;20360;-85
2020/12/06 05:54:00;;;;;;;0.50;0.50;;;2.30;99.90;;;;;;5074482;28;20195;-85
2020/12/06 05:56:26;;;;;;;0.50;0.50;;;2.50;99.90;;;;;;5074250;28;20639;-85
2020/12/06 05:58:53;;;;;;;0.50;0.50;;;2.50;99.90;;;;;;5074108;28;20195;-85
2020/12/06 06:01:21;;;;;;;0.50;0.50;;;2.50;99.90;;;;;;5074291;28;20732;-85
2020/12/06 06:03:49;;;;;;;0.50;0.50;;;2.50;99.90;;;;;;5074149;28;20225;-85
2020/12/06 06:06:21;;;;;;;0.50;0.50;;;2.50;99.90;;;;;;5073745;28;20236;-85
2020/12/06 06:08:49;;;;;;;0.50;0.50;;;2.50;99.90;;;;;;5073842;28;20580;-84
2020/12/06 06:11:27;;;;;;;0.50;0.50;;;2.50;99.90;;;;;;5073683;28;20236;-85
2020/12/06 06:13:56;;;;;;;0.50;0.50;;;2.50;99.90;;;;;;5074305;28;20208;-85
2020/12/06 06:16:25;;;;;;;0.50;0.50;;;2.50;99.90;;;;;;5073712;28;20261;-85
2020/12/06 06:18:56;;;;;;;0.50;0.50;;;2.50;99.90;;;;;;5073839;28;20202;-85
2020/12/06 06:21:26;;;;;;;0.50;0.50;;;2.50;99.90;;;;;;5073471;28;20207;-84
2020/12/06 06:23:53;;;;;;;0.50;0.50;;;2.50;99.90;;;;;;5073769;28;20203;-85
2020/12/06 06:26:23;;;;;;;0.50;0.50;;;2.50;99.90;;;;;;5073300;28;20196;-84
2020/12/06 06:28:52;;;;;;;0.50;0.50;;;2.50;99.90;;;;;;5073452;28;20239;-85
2020/12/06 06:31:21;;;;;;;0.50;0.50;;;2.60;99.90;;;;;;5073309;28;20666;-85
2020/12/06 06:33:49;;;;;;;0.50;0.50;;;2.60;99.90;;;;;;5072696;28;20632;-85
2020/12/06 06:36:20;;;;;;;0.50;0.50;;;2.70;99.90;;;;;;5073415;28;20213;-85
2020/12/06 06:38:46;;;;;;;0.50;0.50;;;2.70;99.90;;;;;;5073345;28;20196;-84
2020/12/06 06:41:13;;;;;;;0.50;0.50;;;2.70;99.90;;;;;;5073137;28;20204;-84
2020/12/06 06:43:40;;;;;;;0.50;0.50;;;2.70;99.90;;;;;;5073034;28;20227;-84
2020/12/06 06:46:14;;;;;;;0.50;0.50;;;2.70;99.90;;;;;;5072945;28;20238;-83
2020/12/06 06:48:40;;;;;;;0.50;0.50;;;2.70;99.90;;;;;;5073088;28;20860;-84
2020/12/06 06:51:07;;;;;;;0.50;0.50;;;2.70;99.90;;;;;;5072803;28;20248;-84
2020/12/06 06:53:33;;;;;;;0.50;0.50;;;2.70;99.90;;;;;;5072767;28;20196;-84
2020/12/06 06:56:04;;;;;;;0.50;0.50;;;2.80;99.90;;;;;;5072979;28;20229;-84
2020/12/06 06:58:32;;;;;;;0.50;0.50;;;2.80;99.90;;;;;;5072842;28;20203;-85
2020/12/06 07:01:15;;;;;;;0.50;0.50;;;2.80;99.90;;;;;;5072695;28;20207;-84
2020/12/06 07:03:42;;;;;;;0.60;0.60;;;2.80;99.90;;;;;;5072740;28;20200;-83
2020/12/06 07:06:09;;;;;;;0.50;0.50;;;2.80;99.90;;;;;;5073029;28;20269;-84
2020/12/06 07:08:36;;;;;;;0.50;0.50;;;2.80;99.90;;;;;;5072923;28;20208;-84
2020/12/06 07:11:05;;;;;;;0.50;0.50;;;2.80;99.90;;;;;;5072781;28;20220;-84
2020/12/06 07:13:32;;;;;;;0.50;0.50;;;2.80;99.90;;;;;;5072954;28;20204;-85
2020/12/06 07:15:58;;;;;;;0.50;0.50;;;2.80;99.90;;;;;;5072677;28;20196;-84
2020/12/06 07:18:24;;;;;;;0.50;0.50;;;2.80;99.90;;;;;;5072934;28;20196;-84
2020/12/06 07:20:50;;;;;;;0.50;0.50;;;2.80;99.90;;;;;;5072514;28;20200;-84
2020/12/06 07:23:17;;;;;;;0.50;0.50;;;2.80;99.90;;;;;;5072496;28;20203;-84
2020/12/06 07:25:44;;;;;;;0.50;0.50;;;2.80;99.90;;;;;;5072464;28;20195;-84
2020/12/06 07:28:11;;;;;;;0.50;0.50;;;2.80;99.90;;;;;;5072745;28;20226;-84
2020/12/06 07:30:43;;;;;;;0.50;0.50;;;2.80;99.90;;;;;;5072381;28;20234;-85
2020/12/06 07:33:09;;;;;;;0.50;0.50;;;2.80;99.90;;;;;;5072312;28;20207;-84
2020/12/06 07:35:37;;;;;;;0.50;0.50;;;2.80;99.90;;;;;;5071996;28;20662;-84
2020/12/06 07:38:03;;;;;;;0.50;0.50;;;2.90;99.90;;;;;;5072230;28;20281;-85
2020/12/06 07:40:30;;;;;;;0.50;0.50;;;2.90;99.90;;;;;;5072138;28;20199;-84
2020/12/06 07:42:56;;;;;;;0.50;0.50;;;2.90;99.90;;;;;;5072412;28;20211;-84
2020/12/06 07:45:25;;;;;;;0.50;0.50;;;2.90;99.90;;;;;;5071619;28;20677;-84
2020/12/06 07:47:52;;;;;;;0.60;0.60;;;2.90;99.90;;;;;;5072059;28;20290;-85
2020/12/06 07:50:18;;;;;;;0.50;0.50;;;2.90;99.90;;;;;;5072048;28;20265;-84
2020/12/06 07:52:44;;;;;;;0.50;0.50;;;2.90;99.90;;;;;;5072494;28;20203;-84
2020/12/06 07:55:11;;;;;;;0.50;0.50;;;2.90;99.90;;;;;;5072093;28;20211;-84
2020/12/06 07:57:45;;;;;;;0.50;0.50;;;2.90;99.90;;;;;;5071978;28;20203;-84
2020/12/06 08:00:14;;;;;;;0.50;0.50;;;3.00;99.90;;;;;;5072218;28;20199;-84
2020/12/06 08:02:44;;;;;;;0.50;0.50;;;2.90;99.90;;;;;;5072153;28;20203;-84
2020/12/06 08:05:19;;;;;;;0.50;0.50;;;3.00;99.90;;;;;;5071963;28;20204;-84
2020/12/06 08:07:55;;;;;;;0.50;0.50;;;3.00;99.90;;;;;;5072072;28;20294;-84
2020/12/06 08:10:22;;;;;;;0.50;0.50;;;3.00;99.90;;;;;;5071254;28;20280;-84
2020/12/06 08:12:53;;;;;;;0.60;0.60;;;3.00;99.90;;;;;;5072165;28;20231;-84
2020/12/06 08:15:23;;;;;;;0.50;0.50;;;3.00;99.90;;;;;;5072281;28;20200;-85
2020/12/06 08:17:51;;;;;;;0.50;0.50;;;3.00;99.90;;;;;;5072987;28;20748;-85
2020/12/06 08:20:19;;;;;;;0.52;0.52;;;3.10;99.90;;;;;;5072371;28;20203;-85
2020/12/06 08:22:54;;;;;;;0.50;0.50;;;3.10;99.90;;;;;;5072385;28;20256;-84
2020/12/06 08:25:22;;;;;;;0.50;0.50;;;3.10;99.90;;;;;;5072242;28;20206;-84
2020/12/06 08:27:50;;;;;;;0.50;0.50;;;3.00;99.90;;;;;;5072148;28;20204;-85
2020/12/06 08:30:18;;;;;;;0.50;0.50;;;3.10;99.90;;;;;;5071920;28;20223;-85
2020/12/06 08:32:55;;;;;;;0.50;0.50;;;3.00;99.90;;;;;;5070812;28;20690;-85
2020/12/06 08:35:22;;;;;;;0.60;0.60;;;3.00;99.90;;;;;;5070022;28;20576;-85
2020/12/06 08:37:48;;;;;;;0.50;0.50;;;3.10;99.90;;;;;;5072353;28;20196;-85
2020/12/06 08:40:17;;;;;;;0.50;0.50;;;3.10;99.90;;;;;;5072311;28;20897;-85
2020/12/06 08:42:43;;;;;;;0.50;0.50;;;3.10;99.90;;;;;;5072381;28;20208;-84
2020/12/06 08:45:11;;;;;;;0.50;0.50;;;3.00;99.90;;;;;;5072675;28;20203;-84
2020/12/06 08:47:42;;;;;;;0.50;0.50;;;3.00;99.90;;;;;;5072185;28;20837;-84
2020/12/06 08:50:11;;;;;;;0.50;0.50;;;3.00;99.90;;;;;;5072149;28;20254;-85
2020/12/06 08:52:38;;;;;;;0.50;0.50;;;3.00;99.90;;;;;;5072207;28;20215;-85
2020/12/06 08:55:27;;;;;;;0.50;0.50;;;3.00;99.90;;;;;;5072244;28;20241;-84
2020/12/06 08:57:54;;;;;;;0.50;0.50;;;3.10;99.90;;;;;;5071934;28;20595;-85
2020/12/06 09:00:23;;;;;;;0.50;0.50;;;3.10;99.90;;;;;;5072200;28;20207;-84
2020/12/06 09:02:49;;;;;;;0.50;0.50;;;3.60;99.90;;;;;;5071621;28;20187;-85
2020/12/06 09:05:16;;;;;;;0.50;0.50;;;3.10;99.90;;;;;;5071941;28;20619;-85
2020/12/06 09:07:42;;;;;;;0.50;0.50;;;3.10;99.90;;;;;;5071870;28;20569;-85
2020/12/06 09:10:09;;;;;;;0.50;0.50;;;3.10;99.90;;;;;;5071821;28;20274;-84
2020/12/06 09:12:36;;;;;;;0.50;0.50;;;4.10;99.90;;;;;;5070831;28;20247;-87
2020/12/06 09:15:03;;;;;;;0.50;0.50;;;3.20;99.90;;;;;;5071000;28;20202;-86
2020/12/06 09:17:30;;;;;;;0.50;0.50;;;3.20;99.90;;;;;;5070882;28;20203;-85
2020/12/06 09:19:56;;;;;;;0.50;0.50;;;3.20;99.90;;;;;;5071041;28;20718;-85
2020/12/06 09:22:22;;;;;;;0.60;0.60;;;3.20;99.90;;;;;;5071668;28;20203;-85
2020/12/06 09:24:48;;;;;;;0.50;0.50;;;3.20;99.90;;;;;;5071897;28;20203;-85
2020/12/06 09:27:14;;;;;;;0.50;0.50;;;3.20;99.90;;;;;;5072156;28;20196;-85
2020/12/06 09:29:40;;;;;;;0.50;0.50;;;3.20;99.90;;;;;;5072045;28;20524;-85
2020/12/06 09:32:06;;;;;;;0.50;0.50;;;3.30;99.90;;;;;;5072314;28;20199;-85
2020/12/06 09:34:33;;;;;;;0.50;0.50;;;3.30;99.90;;;;;;5071830;28;20208;-85
2020/12/06 09:36:59;;;;;;;0.50;0.50;;;3.30;99.90;;;;;;5071737;28;20826;-85
2020/12/06 09:39:26;;;;;;;0.50;0.50;;;3.40;99.90;;;;;;5071452;28;20212;-85
2020/12/06 09:41:52;;;;;;;0.50;0.50;;;3.40;99.90;;;;;;5071420;28;20199;-85
2020/12/06 09:44:18;;;;;;;0.50;0.50;;;3.40;99.90;;;;;;5070369;28;20269;-85
2020/12/06 09:46:44;;;;;;;0.50;0.50;;;3.40;99.90;;;;;;5069991;28;20219;-85
2020/12/06 09:49:11;;;;;;;0.50;0.50;;;3.50;99.90;;;;;;5070617;28;20588;-85
2020/12/06 09:51:41;;;;;;;0.50;0.50;;;3.50;99.90;;;;;;5071503;28;20195;-86
2020/12/06 09:54:07;;;;;;;0.50;0.50;;;3.40;99.90;;;;;;5071660;28;20242;-85
2020/12/06 09:56:33;;;;;;;0.50;0.50;;;3.50;99.90;;;;;;5071845;28;20199;-85
2020/12/06 09:59:00;;;;;;;0.50;0.50;;;3.50;99.90;;;;;;5071403;28;20670;-86
2020/12/06 10:01:28;;;;;;;0.50;0.50;;;3.50;99.90;;;;;;5071691;28;20658;-85
2020/12/06 10:03:54;;;;;;;0.55;0.55;;;3.50;99.90;;;;;;5071662;28;20257;-85
2020/12/06 10:06:24;;;;;;;0.50;0.50;;;3.60;99.90;;;;;;5070355;28;20192;-85
2020/12/06 10:08:54;;;;;;;0.50;0.50;;;3.60;99.90;;;;;;5067911;28;20654;-87
2020/12/06 10:11:21;;;;;;;0.50;0.50;;;3.60;99.90;;;;;;5073999;28;20224;-85
2020/12/06 10:13:47;;;;;;;0.50;0.50;;;3.70;99.90;;;;;;5074263;28;20198;-86
2020/12/06 10:16:17;;;;;;;0.50;0.50;;;3.70;99.90;;;;;;5074723;28;20297;-86
2020/12/06 10:18:45;;;;;;;0.50;0.50;;;3.60;99.90;;;;;;5073755;28;20537;-86
2020/12/06 10:21:13;;;;;;;0.50;0.50;;;3.70;99.90;;;;;;5074025;28;20200;-86
2020/12/06 10:23:39;;;;;;;0.50;0.50;;;3.80;99.90;;;;;;5071514;28;20283;-87
2020/12/06 10:26:06;;;;;;;0.50;0.50;;;3.80;99.90;;;;;;5072337;28;20534;-87
2020/12/06 10:28:33;;;;;;;0.50;0.50;;;3.80;99.90;;;;;;5072375;28;20248;-86
2020/12/06 10:30:59;;;;;;;0.50;0.50;;;3.70;99.90;;;;;;5073219;28;20223;-87
2020/12/06 10:33:25;;;;;;;0.50;0.50;;;3.80;99.90;;;;;;5072469;28;20195;-87
2020/12/06 10:35:51;;;;;;;0.50;0.50;;;3.80;99.90;;;;;;5073122;28;20200;-87
2020/12/06 10:38:17;;;;;;;0.50;0.50;;;3.80;99.90;;;;;;5071183;28;20200;-86
2020/12/06 10:40:44;;;;;;;0.50;0.50;;;3.80;99.90;;;;;;5073423;28;20196;-86
2020/12/06 10:43:11;;;;;;;0.50;0.50;;;3.80;99.90;;;;;;5073668;28;20274;-86
2020/12/06 10:45:37;;;;;;;0.50;0.50;;;3.80;99.90;;;;;;5072738;28;20298;-86
2020/12/06 10:48:04;;;;;;;0.55;0.55;;;3.80;99.90;;;;;;5069271;28;20195;-86
2020/12/06 10:50:30;;;;;;;0.50;0.50;;;3.70;99.90;;;;;;5071091;28;20622;-86
2020/12/06 10:52:57;;;;;;;0.50;0.50;;;3.70;99.90;;;;;;5071274;28;20207;-86
2020/12/06 10:55:25;;;;;;;0.50;0.50;;;3.80;99.90;;;;;;5068621;28;20192;-88
2020/12/06 10:57:51;;;;;;;0.60;0.60;;;3.80;99.90;;;;;;5071874;28;20195;-86
2020/12/06 11:00:18;;;;;;;0.50;0.50;;;3.90;99.90;;;;;;5073202;28;20204;-86
2020/12/06 11:02:48;;;;;;;0.50;0.50;;;3.80;99.90;;;;;;5073065;28;20204;-86
2020/12/06 11:05:14;;;;;;;0.60;0.60;;;3.80;99.90;;;;;;5064521;28;20214;-84
2020/12/06 11:07:41;;;;;;;0.50;0.50;;;3.90;99.90;;;;;;5036111;28;20549;-83
2020/12/06 11:10:07;;;;;;;0.50;0.50;;;3.90;99.90;;;;;;5062913;28;20228;-83
2020/12/06 11:12:33;;;;;;;0.50;0.50;;;3.90;99.90;;;;;;5069325;28;20227;-86
2020/12/06 11:14:59;;;;;;;0.57;0.57;;;3.80;99.90;;;;;;5060641;28;20213;-87
2020/12/06 11:17:30;;;;;;;0.55;0.55;;;3.80;99.90;;;;;;5052695;28;20834;-86
2020/12/06 11:19:57;;;;;;;0.60;0.60;;;3.90;99.90;;;;;;5056390;28;20654;-86
2020/12/06 11:22:23;;;;;;;0.50;0.50;;;3.90;99.90;;;;;;5070994;28;20253;-86
2020/12/06 11:24:49;;;;;;;0.60;0.60;;;3.90;99.90;;;;;;5069114;28;20266;-86
2020/12/06 11:27:15;;;;;;;0.50;0.50;;;3.90;99.90;;;;;;5053869;28;20212;-87
2020/12/06 11:29:41;;;;;;;0.50;0.50;;;3.90;99.90;;;;;;5053070;28;20683;-86
2020/12/06 11:32:07;;;;;;;0.60;0.60;;;3.90;99.90;;;;;;5062608;28;20203;-86
2020/12/06 11:34:34;;;;;;;0.52;0.52;;;3.90;99.90;;;;;;5062181;28;20196;-86
2020/12/06 11:37:00;;;;;;;0.50;0.50;;;3.80;99.90;;;;;;5055794;28;20585;-86
2020/12/06 11:39:27;;;;;;;0.57;0.57;;;3.80;99.90;;;;;;5067013;28;20208;-86
2020/12/06 11:41:53;;;;;;;0.50;0.50;;;3.80;99.90;;;;;;5065678;28;20599;-87
2020/12/06 11:44:20;;;;;;;0.55;0.55;;;3.80;99.90;;;;;;5068764;28;20204;-86
2020/12/06 11:46:49;;;;;;;0.50;0.50;;;3.80;99.90;;;;;;5066691;28;20805;-86
2020/12/06 11:49:15;;;;;;;0.50;0.50;;;3.80;99.90;;;;;;5054321;28;20695;-86
2020/12/06 11:51:42;;;;;;;0.50;0.50;;;3.80;99.90;;;;;;5068553;28;20226;-87
2020/12/06 11:54:09;;;;;;;0.50;0.50;;;3.80;99.90;;;;;;5067551;28;20192;-86
2020/12/06 11:56:35;;;;;;;0.50;0.50;;;3.80;99.90;;;;;;5070345;28;20231;-86
2020/12/06 11:59:02;;;;;;;0.60;0.60;;;3.90;99.90;;;;;;5069134;28;20200;-87
2020/12/06 12:01:28;;;;;;;0.55;0.55;;;3.90;99.90;;;;;;5067133;28;20256;-86
2020/12/06 12:03:54;;;;;;;0.50;0.50;;;3.90;99.90;;;;;;5071142;28;20345;-87
2020/12/06 12:06:20;;;;;;;0.50;0.50;;;3.90;99.90;;;;;;5070787;28;20199;-85
2020/12/06 12:09:14;;;;;;;0.50;0.50;;;4.00;99.90;;;;;;5057084;28;20196;-86
2020/12/06 12:14:52;;;;;;;0.50;0.50;;;4.00;99.90;;;;;;5008490;28;20222;-86
2020/12/06 12:17:29;;;;;;;0.50;0.50;;;3.80;99.90;;;;;;5051488;28;20196;-86
2020/12/06 12:19:56;;;;;;;0.50;0.50;;;3.90;99.90;;;;;;5051992;28;20243;-86
2020/12/06 12:22:30;;;;;;;0.50;0.50;;;3.90;99.90;;;;;;5061819;28;20195;-86
2020/12/06 12:24:58;;;;;;;0.50;0.50;;;3.90;99.90;;;;;;5066190;28;20204;-85
2020/12/06 12:31:09;;;;;;;0.60;0.60;;;4.30;99.90;;;;;;4975034;28;20610;-84
2020/12/06 12:33:48;;;;;;;0.50;0.50;;;3.80;99.90;;;;;;5015631;28;20212;-84
2020/12/06 12:36:16;;;;;;;0.50;0.50;;;4.80;99.90;;;;;;5067330;28;20287;-83
2020/12/06 12:39:14;;;;;;;0.50;0.50;;;4.00;99.90;;;;;;5068444;28;20472;-84
2020/12/06 12:42:18;;;;;;;0.55;0.55;;;4.10;99.90;;;;;;5062725;28;20212;-84
2020/12/06 12:44:44;;;;;;;0.60;0.60;;;4.20;99.90;;;;;;5063224;28;20199;-84
2020/12/06 12:47:25;;;;;;;0.52;0.52;;;4.20;99.90;;;;;;5052162;28;20212;-85
2020/12/06 12:49:55;;;;;;;0.60;0.60;;;4.20;99.90;;;;;;4988750;28;20237;-84
2020/12/06 12:52:21;;;;;;;0.50;0.50;;;4.20;99.90;;;;;;5040031;28;20211;-84
2020/12/06 12:58:13;;;;;;;0.50;0.50;;;4.00;99.90;;;;;;5033844;28;20230;-84
2020/12/06 13:06:44;;;;;;;0.50;0.50;;;4.10;99.90;;;;;;5062976;28;20662;-83
2020/12/06 13:09:16;;;;;;;0.50;0.50;;;4.10;99.90;;;;;;5068994;28;20200;-84
2020/12/06 13:12:08;;;;;;;0.50;0.50;;;4.10;99.90;;;;;;5052547;28;20221;-84
2020/12/06 13:14:36;;;;;;;0.50;0.50;;;4.00;99.90;;;;;;5051198;28;20230;-84
2020/12/06 13:17:04;;;;;;;0.50;0.50;;;4.10;99.90;;;;;;5051129;28;20729;-84